Time;durP1;ratioP1;P1;durP2;ratioP2;P2;SDS_P1;SDS_P2;PMS_P1;PMS_P2;Temp;Humidity;BMP_temperature;BMP_pressure;BME280_temperature;BME280_humidity;BME280_pressure;Samples;Min_cycle;Max_cycle;Signal;HPM_P1;HPM_P2
2023/08/21 00:01:01;;;;;;;18.10;16.70;;;;;;;;;;6163503;28;20198;-67
2023/08/21 00:04:02;;;;;;;18.80;17.07;;;;;;;;;;6161430;28;20201;-67
2023/08/21 00:07:03;;;;;;;17.30;15.60;;;;;;;;;;6177421;28;20248;-67
2023/08/21 00:10:05;;;;;;;18.47;16.77;;;;;;;;;;6161238;28;20695;-67
2023/08/21 00:13:06;;;;;;;16.57;14.83;;;;;;;;;;6158147;28;20195;-66
2023/08/21 00:16:07;;;;;;;18.13;16.43;;;;;;;;;;6161558;28;20185;-67
2023/08/21 00:19:08;;;;;;;18.33;16.57;;;;;;;;;;6176383;28;20224;-67
2023/08/21 00:22:09;;;;;;;17.20;15.37;;;;;;;;;;6160613;28;20200;-66
2023/08/21 00:25:10;;;;;;;17.27;15.77;;;;;;;;;;6171563;28;20247;-67
2023/08/21 00:28:12;;;;;;;17.27;15.73;;;;;;;;;;6153291;28;20201;-66
2023/08/21 00:31:13;;;;;;;17.97;16.43;;;;;;;;;;6150306;28;20216;-66
2023/08/21 00:34:14;;;;;;;16.97;15.53;;;;;;;;;;6165804;28;20287;-66
2023/08/21 00:37:15;;;;;;;17.03;15.63;;;;;;;;;;6147017;28;20188;-66
2023/08/21 00:40:16;;;;;;;18.93;17.13;;;;;;;;;;6177359;28;20239;-67
2023/08/21 00:43:17;;;;;;;17.40;16.00;;;;;;;;;;6176264;28;20206;-67
2023/08/21 00:46:18;;;;;;;17.60;15.90;;;;;;;;;;6161270;28;20220;-67
2023/08/21 00:49:20;;;;;;;18.60;16.73;;;;;;;;;;6156263;28;20289;-67
2023/08/21 00:52:21;;;;;;;18.67;16.97;;;;;;;;;;6153656;28;20196;-66
2023/08/21 00:55:23;;;;;;;18.27;16.57;;;;;;;;;;6176872;28;20219;-67
2023/08/21 00:58:24;;;;;;;18.87;16.97;;;;;;;;;;6160550;28;20202;-67
2023/08/21 01:01:25;;;;;;;17.40;15.80;;;;;;;;;;6161040;28;20203;-67
2023/08/21 01:04:26;;;;;;;17.57;16.07;;;;;;;;;;6160095;28;20262;-67
2023/08/21 01:07:27;;;;;;;17.73;16.23;;;;;;;;;;6160278;28;20259;-67
2023/08/21 01:10:55;;;;;;;17.70;16.07;;;;;;;;;;6161365;28;20212;-67
2023/08/21 01:14:08;;;;;;;17.53;15.73;;;;;;;;;;6169505;28;20205;-67
2023/08/21 01:17:12;;;;;;;18.80;17.03;;;;;;;;;;6165673;28;20193;-67
2023/08/21 01:20:14;;;;;;;19.20;17.40;;;;;;;;;;6169076;28;20293;-67
2023/08/21 01:23:32;;;;;;;18.70;17.00;;;;;;;;;;6175024;28;20220;-67
2023/08/21 01:26:33;;;;;;;19.17;17.47;;;;;;;;;;6176305;28;20200;-67
2023/08/21 01:29:34;;;;;;;17.90;16.20;;;;;;;;;;6157566;28;20219;-66
2023/08/21 01:32:54;;;;;;;18.30;16.60;;;;;;;;;;6189567;28;20195;-66
2023/08/21 01:35:57;;;;;;;19.33;17.67;;;;;;;;;;6160047;28;20253;-67
2023/08/21 01:38:58;;;;;;;19.27;17.53;;;;;;;;;;6152608;28;20197;-67
2023/08/21 01:41:59;;;;;;;18.53;16.90;;;;;;;;;;6171060;28;20196;-66
2023/08/21 01:45:00;;;;;;;18.70;17.10;;;;;;;;;;6151054;28;20188;-66
2023/08/21 01:48:01;;;;;;;18.60;17.00;;;;;;;;;;6151766;28;20219;-67
2023/08/21 01:51:02;;;;;;;18.97;17.20;;;;;;;;;;6140705;28;20222;-67
2023/08/21 01:54:03;;;;;;;18.90;17.07;;;;;;;;;;6175503;28;20287;-67
2023/08/21 01:57:05;;;;;;;18.57;16.93;;;;;;;;;;6158708;28;20339;-67
2023/08/21 02:00:07;;;;;;;17.77;16.13;;;;;;;;;;6165687;28;20232;-67
2023/08/21 02:03:08;;;;;;;19.00;17.17;;;;;;;;;;6154518;28;20189;-67
2023/08/21 02:06:09;;;;;;;19.23;17.27;;;;;;;;;;6166639;28;20259;-67
2023/08/21 02:09:10;;;;;;;17.60;16.10;;;;;;;;;;6160687;28;20196;-67
2023/08/21 02:12:11;;;;;;;18.00;16.40;;;;;;;;;;6185031;28;20192;-67
2023/08/21 02:15:12;;;;;;;19.10;17.40;;;;;;;;;;6175024;28;20198;-67
2023/08/21 02:18:14;;;;;;;18.73;17.03;;;;;;;;;;6143741;28;20215;-67
2023/08/21 02:21:15;;;;;;;18.03;16.33;;;;;;;;;;6167938;28;20231;-66
2023/08/21 02:24:16;;;;;;;18.83;17.13;;;;;;;;;;6159404;28;20199;-66
2023/08/21 02:27:17;;;;;;;18.30;16.70;;;;;;;;;;6152705;28;20193;-66
2023/08/21 02:30:20;;;;;;;18.90;16.67;;;;;;;;;;6156055;28;20211;-66
2023/08/21 02:33:21;;;;;;;18.67;16.90;;;;;;;;;;6158907;28;20192;-66
2023/08/21 02:36:22;;;;;;;18.70;17.10;;;;;;;;;;6163109;28;20205;-66
2023/08/21 02:39:23;;;;;;;18.63;16.93;;;;;;;;;;6155501;28;20200;-66
2023/08/21 02:42:24;;;;;;;19.50;17.60;;;;;;;;;;6156565;28;20219;-66
2023/08/21 02:45:25;;;;;;;19.60;17.70;;;;;;;;;;6160768;28;20207;-67
2023/08/21 02:48:26;;;;;;;17.70;16.10;;;;;;;;;;6165700;28;20202;-67
2023/08/21 02:51:27;;;;;;;18.23;16.53;;;;;;;;;;6152463;28;20215;-67
2023/08/21 02:54:28;;;;;;;18.57;16.83;;;;;;;;;;6147550;28;20193;-67
2023/08/21 02:57:29;;;;;;;18.53;16.83;;;;;;;;;;6177320;28;20202;-67
2023/08/21 03:00:30;;;;;;;18.77;16.83;;;;;;;;;;6184332;28;20195;-67
2023/08/21 03:03:33;;;;;;;18.37;16.77;;;;;;;;;;6162524;28;20196;-67
2023/08/21 03:06:34;;;;;;;18.07;16.57;;;;;;;;;;6162847;28;20240;-67
2023/08/21 03:09:37;;;;;;;17.50;16.00;;;;;;;;;;6162713;28;20216;-67
2023/08/21 03:12:38;;;;;;;19.47;17.50;;;;;;;;;;6167419;28;20207;-67
2023/08/21 03:15:39;;;;;;;19.77;17.87;;;;;;;;;;6157597;28;20196;-67
2023/08/21 03:18:56;;;;;;;18.87;17.17;;;;;;;;;;6173884;28;20195;-67
2023/08/21 03:21:57;;;;;;;18.47;16.77;;;;;;;;;;6174391;28;20197;-67
2023/08/21 03:24:58;;;;;;;18.60;16.80;;;;;;;;;;6162169;28;20196;-67
2023/08/21 03:27:59;;;;;;;19.87;17.97;;;;;;;;;;6176637;28;20274;-66
2023/08/21 03:31:00;;;;;;;18.43;16.63;;;;;;;;;;6174464;28;20219;-67
2023/08/21 03:34:02;;;;;;;20.00;18.10;;;;;;;;;;6159734;28;20199;-67
2023/08/21 03:37:03;;;;;;;18.07;16.37;;;;;;;;;;6165048;28;20192;-67
2023/08/21 03:40:04;;;;;;;18.53;16.80;;;;;;;;;;6163449;28;20192;-66
2023/08/21 03:43:05;;;;;;;18.13;16.63;;;;;;;;;;6172677;28;20193;-66
2023/08/21 03:46:06;;;;;;;19.57;17.67;;;;;;;;;;6177574;28;20222;-66
2023/08/21 03:49:07;;;;;;;18.43;16.83;;;;;;;;;;6174647;28;20200;-66
2023/08/21 03:52:08;;;;;;;18.60;16.73;;;;;;;;;;6162817;28;20203;-67
2023/08/21 03:55:09;;;;;;;19.80;17.47;;;;;;;;;;6169706;28;20192;-64
2023/08/21 03:58:10;;;;;;;19.70;17.77;;;;;;;;;;6167438;28;20203;-63
2023/08/21 04:01:11;;;;;;;19.00;17.30;;;;;;;;;;6177269;28;20202;-63
2023/08/21 04:04:12;;;;;;;18.77;16.90;;;;;;;;;;6153824;28;20204;-62
2023/08/21 04:07:14;;;;;;;19.80;17.90;;;;;;;;;;6146976;28;20245;-64
2023/08/21 04:10:16;;;;;;;18.43;16.80;;;;;;;;;;6176000;28;20223;-63
2023/08/21 04:13:17;;;;;;;18.80;17.10;;;;;;;;;;6158570;28;20204;-63
2023/08/21 04:16:18;;;;;;;20.70;18.83;;;;;;;;;;6161196;28;20198;-63
2023/08/21 04:19:19;;;;;;;19.33;17.37;;;;;;;;;;6174498;28;20196;-63
2023/08/21 04:22:20;;;;;;;18.83;16.93;;;;;;;;;;6161202;28;20218;-62
2023/08/21 04:25:21;;;;;;;18.93;17.33;;;;;;;;;;6160681;28;20208;-63
2023/08/21 04:28:22;;;;;;;19.37;16.77;;;;;;;;;;6161072;28;20200;-63
2023/08/21 04:31:23;;;;;;;19.67;17.90;;;;;;;;;;6160054;28;20211;-64
2023/08/21 04:34:24;;;;;;;20.13;18.20;;;;;;;;;;6168301;28;20454;-63
2023/08/21 04:37:25;;;;;;;19.67;17.70;;;;;;;;;;6175804;28;20215;-63
2023/08/21 04:40:27;;;;;;;20.17;18.37;;;;;;;;;;6160648;28;20192;-63
2023/08/21 04:43:28;;;;;;;19.77;17.77;;;;;;;;;;6160338;28;20255;-63
2023/08/21 04:46:29;;;;;;;18.10;16.40;;;;;;;;;;6151674;28;20290;-64
2023/08/21 04:49:30;;;;;;;18.63;16.93;;;;;;;;;;6160223;28;20244;-63
2023/08/21 04:52:31;;;;;;;18.73;16.90;;;;;;;;;;6160543;28;20202;-65
2023/08/21 04:55:32;;;;;;;19.17;17.33;;;;;;;;;;6172049;28;20243;-64
2023/08/21 04:58:33;;;;;;;19.13;17.33;;;;;;;;;;6153719;28;20199;-63
2023/08/21 05:01:34;;;;;;;17.77;16.17;;;;;;;;;;6158935;28;20200;-64
2023/08/21 05:04:36;;;;;;;18.33;16.70;;;;;;;;;;6157130;28;20202;-64
2023/08/21 05:07:37;;;;;;;20.23;18.13;;;;;;;;;;6153090;28;20236;-67
2023/08/21 05:10:38;;;;;;;18.77;16.97;;;;;;;;;;6178273;28;20269;-66
2023/08/21 05:13:39;;;;;;;18.33;16.67;;;;;;;;;;6161430;28;20198;-66
2023/08/21 05:16:40;;;;;;;19.23;17.33;;;;;;;;;;6174912;28;20185;-66
2023/08/21 05:19:41;;;;;;;19.30;17.40;;;;;;;;;;6157331;28;20207;-66
2023/08/21 05:22:42;;;;;;;19.20;17.50;;;;;;;;;;6155177;28;20224;-66
2023/08/21 05:25:44;;;;;;;18.13;16.47;;;;;;;;;;6157868;28;20203;-66
2023/08/21 05:28:45;;;;;;;20.30;18.40;;;;;;;;;;6151481;28;20340;-67
2023/08/21 05:31:46;;;;;;;18.30;16.70;;;;;;;;;;6169812;28;20208;-66
2023/08/21 05:34:47;;;;;;;17.53;15.83;;;;;;;;;;6157387;28;20201;-67
2023/08/21 05:37:48;;;;;;;19.07;17.17;;;;;;;;;;6164563;28;20196;-67
2023/08/21 05:40:49;;;;;;;19.77;17.97;;;;;;;;;;6149632;28;20215;-68
2023/08/21 05:43:50;;;;;;;18.27;16.57;;;;;;;;;;6167368;28;20203;-66
2023/08/21 05:46:51;;;;;;;20.13;18.33;;;;;;;;;;6155632;28;20255;-66
2023/08/21 05:49:53;;;;;;;19.20;17.30;;;;;;;;;;6155208;28;20230;-67
2023/08/21 05:52:54;;;;;;;18.10;16.40;;;;;;;;;;6159831;28;20196;-67
2023/08/21 05:55:55;;;;;;;18.07;16.37;;;;;;;;;;6159740;28;20654;-67
2023/08/21 05:58:56;;;;;;;19.90;18.00;;;;;;;;;;6175048;28;20192;-67
2023/08/21 06:01:57;;;;;;;18.57;17.00;;;;;;;;;;6158585;28;20222;-66
2023/08/21 06:04:58;;;;;;;18.87;17.00;;;;;;;;;;6156258;28;20230;-67
2023/08/21 06:07:59;;;;;;;19.63;17.83;;;;;;;;;;6165377;28;20294;-67
2023/08/21 06:11:00;;;;;;;19.67;17.87;;;;;;;;;;6177005;28;20215;-66
2023/08/21 06:14:01;;;;;;;19.27;17.30;;;;;;;;;;6158681;28;20188;-68
2023/08/21 06:17:03;;;;;;;18.83;17.27;;;;;;;;;;6149444;28;20485;-68
2023/08/21 06:20:05;;;;;;;18.57;16.97;;;;;;;;;;6166665;28;20197;-67
2023/08/21 06:23:06;;;;;;;19.53;17.53;;;;;;;;;;6162335;28;20192;-67
2023/08/21 06:26:07;;;;;;;20.27;18.27;;;;;;;;;;6157575;28;20199;-67
2023/08/21 06:29:08;;;;;;;18.63;16.70;;;;;;;;;;6165174;28;20200;-65
2023/08/21 06:32:09;;;;;;;18.60;16.90;;;;;;;;;;6157910;28;20222;-66
2023/08/21 06:35:10;;;;;;;18.73;17.03;;;;;;;;;;6174676;28;20195;-66
2023/08/21 06:38:11;;;;;;;18.43;16.50;;;;;;;;;;6155990;28;20200;-66
2023/08/21 06:41:12;;;;;;;18.90;17.13;;;;;;;;;;6158810;28;20196;-66
2023/08/21 06:44:14;;;;;;;18.77;16.87;;;;;;;;;;6158658;28;20189;-71
2023/08/21 06:47:15;;;;;;;19.07;17.27;;;;;;;;;;6160212;28;20200;-65
2023/08/21 06:50:16;;;;;;;18.50;16.70;;;;;;;;;;6166869;28;20436;-65
2023/08/21 06:53:17;;;;;;;18.43;16.67;;;;;;;;;;6169096;28;20192;-67
2023/08/21 06:56:18;;;;;;;17.60;16.10;;;;;;;;;;6157930;28;20194;-68
2023/08/21 06:59:19;;;;;;;19.20;17.50;;;;;;;;;;6147661;28;20285;-68
2023/08/21 07:02:20;;;;;;;19.17;17.37;;;;;;;;;;6180369;28;20242;-67
2023/08/21 07:05:21;;;;;;;19.40;17.57;;;;;;;;;;6151431;28;20193;-66
2023/08/21 07:08:23;;;;;;;19.07;17.27;;;;;;;;;;6190996;28;20204;-68
2023/08/21 07:11:24;;;;;;;17.83;16.33;;;;;;;;;;6180790;28;20231;-67
2023/08/21 07:14:25;;;;;;;17.13;15.53;;;;;;;;;;6155444;28;20200;-67
2023/08/21 07:17:26;;;;;;;18.63;16.73;;;;;;;;;;6158835;28;20279;-68
2023/08/21 07:20:27;;;;;;;17.87;16.27;;;;;;;;;;6165412;28;20204;-66
2023/08/21 07:23:28;;;;;;;18.47;16.67;;;;;;;;;;6163660;28;20197;-66
2023/08/21 07:26:29;;;;;;;18.97;15.97;;;;;;;;;;6150291;28;20205;-66
2023/08/21 07:29:31;;;;;;;16.00;14.47;;;;;;;;;;6152317;28;20220;-65
2023/08/21 07:32:32;;;;;;;16.60;14.90;;;;;;;;;;6153025;28;20191;-65
2023/08/21 07:35:33;;;;;;;17.40;15.93;;;;;;;;;;6165299;28;20191;-65
2023/08/21 07:38:34;;;;;;;17.40;15.80;;;;;;;;;;6180073;28;20193;-67
2023/08/21 07:41:35;;;;;;;16.90;15.10;;;;;;;;;;6175010;28;20200;-66
2023/08/21 07:44:36;;;;;;;15.93;14.40;;;22.20;80.20;;;;;;6159353;28;20213;-66
2023/08/21 07:47:37;;;;;;;16.93;15.43;;;22.80;78.10;;;;;;6170910;28;20195;-67
2023/08/21 07:50:38;;;;;;;16.53;14.93;;;22.80;77.80;;;;;;6156325;28;20221;-71
2023/08/21 07:53:41;;;;;;;15.73;14.33;;;;;;;;;;6160199;28;20661;-71
2023/08/21 07:56:42;;;;;;;17.87;16.10;;;;;;;;;;6164752;28;20197;-69
2023/08/21 07:59:43;;;;;;;17.13;15.57;;;;;;;;;;6151335;28;20200;-70
2023/08/21 08:02:44;;;;;;;16.20;14.70;;;;;;;;;;6176287;28;20188;-70
2023/08/21 08:05:45;;;;;;;17.53;16.03;;;;;;;;;;6150289;28;20244;-70
2023/08/21 08:08:46;;;;;;;16.13;14.83;;;;;;;;;;6159426;28;20269;-70
2023/08/21 08:11:47;;;;;;;17.50;15.93;;;;;;;;;;6161250;28;20266;-71
2023/08/21 08:14:49;;;;;;;17.10;15.70;;;;;;;;;;6169830;28;20200;-70
2023/08/21 08:17:52;;;;;;;15.90;14.53;;;;;;;;;;6158772;28;20203;-70
2023/08/21 08:20:53;;;;;;;17.10;15.53;;;;;;;;;;6159266;28;20504;-70
2023/08/21 08:23:54;;;;;;;16.47;14.97;;;;;;;;;;6160111;28;20200;-70
2023/08/21 08:26:56;;;;;;;17.97;16.23;;;;;;;;;;6181235;28;20198;-70
2023/08/21 08:29:56;;;;;;;16.57;15.17;;;23.20;79.50;;;;;;6156453;28;20234;-70
2023/08/21 08:32:57;;;;;;;14.93;13.70;;;23.30;79.90;;;;;;6135051;28;20217;-70
2023/08/21 08:35:57;;;;;;;14.90;13.57;;;23.40;76.60;;;;;;6131037;28;20192;-70
2023/08/21 08:38:59;;;;;;;16.27;14.63;;;23.60;75.20;;;;;;6153333;28;20190;-71
2023/08/21 08:42:04;;;;;;;15.43;14.13;;;;;;;;;;6139363;28;20188;-70
2023/08/21 08:45:05;;;;;;;15.10;13.70;;;;;;;;;;6172867;28;20189;-70
2023/08/21 08:48:07;;;;;;;16.57;15.17;;;;;;;;;;6169773;28;20199;-70
2023/08/21 08:51:08;;;;;;;16.47;14.87;;;;;;;;;;6172960;28;20216;-70
2023/08/21 08:54:10;;;;;;;14.50;13.13;;;;;;;;;;6159554;28;20193;-70
2023/08/21 08:57:11;;;;;;;15.10;13.80;;;;;;;;;;6175396;28;20212;-70
2023/08/21 09:00:12;;;;;;;15.70;13.77;;;;;;;;;;6158264;28;20225;-70
2023/08/21 09:03:15;;;;;;;15.57;13.20;;;;;;;;;;6154838;28;20201;-71
2023/08/21 09:06:16;;;;;;;15.17;13.90;;;;;;;;;;6156409;28;20252;-71
2023/08/21 09:09:17;;;;;;;14.10;12.83;;;;;;;;;;6159944;28;20203;-71
2023/08/21 09:12:19;;;;;;;13.60;12.37;;;;;;;;;;6150080;28;20197;-70
2023/08/21 09:15:22;;;;;;;14.13;12.83;;;;;;;;;;6155517;28;20188;-71
2023/08/21 09:18:23;;;;;;;13.37;12.27;;;;;;;;;;6159721;28;20197;-70
2023/08/21 09:21:25;;;;;;;13.73;12.73;;;;;;;;;;6171680;28;20219;-70
2023/08/21 09:24:26;;;;;;;13.77;12.57;;;;;;;;;;6171869;28;20223;-70
2023/08/21 09:27:27;;;;;;;13.77;12.67;;;;;;;;;;6162986;28;20193;-70
2023/08/21 09:30:29;;;;;;;11.97;10.97;;;;;;;;;;6174493;28;20213;-70
2023/08/21 09:33:29;;;;;;;12.67;11.67;;;26.00;69.10;;;;;;6172137;28;20196;-70
2023/08/21 09:36:31;;;;;;;11.30;10.50;;;25.80;68.90;;;;;;6156817;28;20192;-70
2023/08/21 09:39:36;;;;;;;12.27;11.27;;;25.80;68.90;;;;;;6165421;28;20202;-70
2023/08/21 09:42:39;;;;;;;12.77;11.47;;;25.80;69.40;;;;;;6165369;28;20193;-69
2023/08/21 09:45:39;;;;;;;12.73;11.63;;;25.70;70.80;;;;;;6145884;28;20204;-69
2023/08/21 09:48:41;;;;;;;12.20;11.00;;;25.70;70.70;;;;;;6130458;28;20189;-69
2023/08/21 09:51:44;;;;;;;11.53;10.63;;;25.80;66.50;;;;;;6156688;28;20284;-70
2023/08/21 09:54:45;;;;;;;11.60;10.60;;;25.80;66.70;;;;;;6171716;28;20295;-70
2023/08/21 09:57:46;;;;;;;11.70;10.50;;;25.80;65.30;;;;;;6139006;28;20193;-70
2023/08/21 10:00:49;;;;;;;11.33;10.43;;;25.80;66.20;;;;;;6134531;28;20189;-70
2023/08/21 10:03:53;;;;;;;10.83;9.93;;;25.80;65.40;;;;;;6174985;28;20196;-70
2023/08/21 10:06:56;;;;;;;10.40;9.60;;;25.90;65.00;;;;;;6172811;28;20298;-70
2023/08/21 10:09:57;;;;;;;10.50;9.47;;;26.00;65.80;;;;;;6172676;28;20296;-70
2023/08/21 10:13:01;;;;;;;10.40;9.60;;;;;;;;;;6161598;28;20191;-70
2023/08/21 10:16:02;;;;;;;11.10;10.10;;;;;;;;;;6166618;28;20188;-70
2023/08/21 10:19:05;;;;;;;10.80;9.90;;;;;;;;;;6181095;28;20341;-70
2023/08/21 10:22:07;;;;;;;10.40;9.60;;;;;;;;;;6177691;28;20188;-70
2023/08/21 10:25:20;;;;;;;11.57;10.57;;;;;;;;;;6162999;28;20288;-70
2023/08/21 10:28:21;;;;;;;10.63;9.73;;;;;;;;;;6166226;28;20189;-70
2023/08/21 10:31:43;;;;;;;11.10;9.93;;;;;;;;;;6163530;28;20212;-70
2023/08/21 10:34:52;;;;;;;11.30;10.40;;;;;;;;;;6158996;28;20198;-70
2023/08/21 10:38:12;;;;;;;11.20;10.20;;;26.00;66.10;;;;;;6166727;28;20189;-70
2023/08/21 10:41:13;;;;;;;10.60;9.80;;;26.80;62.50;;;;;;6170264;28;20192;-70
2023/08/21 10:44:13;;;;;;;12.03;10.93;;;26.90;62.40;;;;;;6155900;28;20197;-70
2023/08/21 10:47:26;;;;;;;11.07;10.07;;;26.90;64.20;;;;;;6153012;28;20283;-70
2023/08/21 10:50:27;;;;;;;11.30;9.70;;;27.00;63.60;;;;;;6175345;28;20279;-70
2023/08/21 10:53:29;;;;;;;10.90;9.90;;;;;;;;;;6151187;28;20255;-69
2023/08/21 10:56:32;;;;;;;11.20;10.20;;;;;;;;;;6167380;28;20192;-69
2023/08/21 10:59:33;;;;;;;11.17;10.00;;;27.60;63.50;;;;;;6168519;28;20246;-69
2023/08/21 11:02:35;;;;;;;10.87;9.77;;;27.50;61.40;;;;;;6134429;28;20193;-70
2023/08/21 11:05:35;;;;;;;12.70;11.70;;;27.80;61.60;;;;;;6164316;28;20189;-70
2023/08/21 11:08:36;;;;;;;11.53;10.50;;;27.90;61.40;;;;;;6155630;28;20193;-70
2023/08/21 11:11:37;;;;;;;11.67;10.77;;;28.00;60.00;;;;;;6157955;28;20236;-70
2023/08/21 11:14:39;;;;;;;11.10;10.10;;;28.10;62.20;;;;;;6153566;28;20280;-70
2023/08/21 11:17:39;;;;;;;10.87;9.97;;;28.10;58.90;;;;;;6173567;28;20184;-70
2023/08/21 11:20:41;;;;;;;11.40;10.50;;;28.30;55.50;;;;;;6139450;28;20204;-70
2023/08/21 11:23:42;;;;;;;11.10;10.00;;;28.40;59.00;;;;;;6174698;28;20199;-70
2023/08/21 11:26:43;;;;;;;11.33;10.33;;;28.50;58.20;;;;;;6159399;28;20200;-69
2023/08/21 11:29:51;;;;;;;10.90;9.87;;;28.60;61.40;;;;;;6158016;28;20229;-69
2023/08/21 11:33:09;;;;;;;11.13;10.20;;;28.70;59.50;;;;;;6160565;28;20188;-70
2023/08/21 11:36:10;;;;;;;11.03;10.00;;;28.90;57.00;;;;;;6164292;28;20194;-70
2023/08/21 11:39:11;;;;;;;10.43;9.53;;;29.10;56.30;;;;;;6156831;28;20193;-70
2023/08/21 11:42:13;;;;;;;10.30;9.30;;;29.20;54.00;;;;;;6153322;28;20210;-70
2023/08/21 11:45:14;;;;;;;9.97;9.17;;;29.40;55.90;;;;;;6161261;28;20208;-70
2023/08/21 11:48:15;;;;;;;9.83;8.80;;;29.50;53.30;;;;;;6167803;28;20233;-70
2023/08/21 11:51:15;;;;;;;10.43;9.47;;;29.60;54.40;;;;;;6158935;28;20248;-70
2023/08/21 11:54:18;;;;;;;10.10;9.30;;;29.70;55.70;;;;;;6167272;28;20200;-70
2023/08/21 11:57:19;;;;;;;9.43;8.40;;;29.80;54.50;;;;;;6160019;28;20234;-70
2023/08/21 12:00:29;;;;;;;9.77;8.73;;;30.00;55.40;;;;;;6152146;28;20193;-70
2023/08/21 12:03:35;;;;;;;9.57;8.77;;;30.30;55.00;;;;;;6171802;28;20188;-70
2023/08/21 12:06:43;;;;;;;8.80;7.97;;;;;;;;;;6175126;28;20240;-70
2023/08/21 12:09:49;;;;;;;8.30;7.47;;;33.50;52.90;;;;;;6176644;28;20189;-70
2023/08/21 12:12:49;;;;;;;7.70;7.10;;;33.80;52.10;;;;;;6163325;28;20189;-70
2023/08/21 12:15:50;;;;;;;7.43;6.63;;;;;;;;;;6152840;28;20192;-69
2023/08/21 12:18:51;;;;;;;7.15;6.45;;;39.00;43.40;;;;;;6157681;28;20204;-70
2023/08/21 12:21:52;;;;;;;5.85;5.35;;;40.90;40.50;;;;;;6159120;28;20192;-70
2023/08/21 12:24:53;;;;;;;6.50;5.53;;;42.50;36.70;;;;;;6175120;28;20199;-70
2023/08/21 12:27:53;;;;;;;5.65;5.15;;;44.10;33.40;;;;;;6168164;28;20200;-70
2023/08/21 12:30:54;;;;;;;6.22;5.72;;;45.30;32.50;;;;;;6152366;28;20272;-70
2023/08/21 12:33:55;;;;;;;5.90;5.50;;;46.10;32.30;;;;;;6157281;28;20188;-70
2023/08/21 12:36:56;;;;;;;5.35;4.85;;;46.20;29.00;;;;;;6161440;28;20196;-70
2023/08/21 12:39:57;;;;;;;6.72;5.80;;;46.50;29.00;;;;;;6154180;28;20343;-70
2023/08/21 12:42:57;;;;;;;6.47;5.88;;;46.10;31.10;;;;;;6170653;28;20205;-70
2023/08/21 12:45:58;;;;;;;6.22;5.65;;;45.90;31.80;;;;;;6171267;28;20220;-70
2023/08/21 12:49:00;;;;;;;5.70;5.30;;;45.70;31.70;;;;;;6154686;28;20200;-70
2023/08/21 12:52:02;;;;;;;5.53;5.13;;;45.80;31.10;;;;;;6155637;28;20205;-70
2023/08/21 12:55:06;;;;;;;5.30;4.97;;;46.40;30.80;;;;;;6153363;28;20189;-70
2023/08/21 12:58:06;;;;;;;5.70;5.22;;;46.90;30.00;;;;;;6154277;28;20279;-71
2023/08/21 13:01:07;;;;;;;6.90;6.30;;;47.40;29.10;;;;;;6156570;28;20199;-70
2023/08/21 13:04:08;;;;;;;6.53;5.97;;;47.50;29.30;;;;;;6149776;28;20220;-70
2023/08/21 13:07:09;;;;;;;6.05;5.00;;;47.50;29.30;;;;;;6159529;28;20243;-70
2023/08/21 13:10:10;;;;;;;5.50;5.10;;;47.80;29.60;;;;;;6171208;28;20204;-69
2023/08/21 13:13:10;;;;;;;6.32;5.47;;;47.60;28.80;;;;;;6160519;28;20197;-69
2023/08/21 13:16:11;;;;;;;5.53;5.22;;;47.70;28.80;;;;;;6147414;28;20284;-69
2023/08/21 13:19:12;;;;;;;5.43;5.03;;;47.80;28.10;;;;;;6143857;28;20203;-69
2023/08/21 13:22:13;;;;;;;5.80;5.32;;;47.80;28.40;;;;;;6159092;28;20199;-69
2023/08/21 13:25:14;;;;;;;5.10;4.70;;;47.90;28.70;;;;;;6158609;28;20192;-69
2023/08/21 13:28:14;;;;;;;5.65;5.20;;;47.80;28.60;;;;;;6155848;28;20204;-69
2023/08/21 13:31:15;;;;;;;5.95;5.45;;;47.60;29.90;;;;;;6154504;28;20216;-69
2023/08/21 13:34:16;;;;;;;6.20;5.72;;;47.60;28.60;;;;;;6156228;28;20199;-69
2023/08/21 13:37:16;;;;;;;7.35;5.95;;;47.60;29.00;;;;;;6153578;28;20191;-69
2023/08/21 13:40:17;;;;;;;6.53;6.03;;;;;;;;;;6163790;28;20292;-69
2023/08/21 13:43:18;;;;;;;5.80;5.32;;;46.90;29.80;;;;;;6165697;28;20200;-69
2023/08/21 13:46:19;;;;;;;6.65;6.15;;;46.70;30.70;;;;;;6139453;28;20202;-69
2023/08/21 13:49:20;;;;;;;6.03;5.53;;;46.50;30.10;;;;;;6166780;28;20280;-69
2023/08/21 13:52:21;;;;;;;6.15;5.55;;;46.30;31.00;;;;;;6161277;28;20204;-68
2023/08/21 13:55:22;;;;;;;6.20;5.70;;;45.60;32.00;;;;;;6138047;28;20242;-69
2023/08/21 13:58:23;;;;;;;6.50;6.00;;;45.00;32.20;;;;;;6163821;28;20189;-69
2023/08/21 14:01:24;;;;;;;5.95;5.50;;;44.50;31.20;;;;;;6162723;28;20207;-69
2023/08/21 14:04:24;;;;;;;6.95;6.45;;;43.50;31.60;;;;;;6163510;28;20197;-69
2023/08/21 14:07:25;;;;;;;6.90;6.40;;;42.70;33.40;;;;;;6161667;28;20240;-69
2023/08/21 14:10:26;;;;;;;7.05;6.30;;;;;;;;;;6145770;28;20216;-69
2023/08/21 14:13:28;;;;;;;6.15;5.57;;;;;;;;;;6171373;28;20188;-69
2023/08/21 14:16:29;;;;;;;6.88;5.60;;;;;;;;;;6172662;28;20365;-69
2023/08/21 14:19:30;;;;;;;6.60;6.20;;;40.30;36.10;;;;;;6172069;28;20336;-68
2023/08/21 14:22:31;;;;;;;6.93;6.33;;;39.90;38.20;;;;;;6155330;28;20192;-68
2023/08/21 14:25:32;;;;;;;6.00;5.53;;;39.50;36.60;;;;;;6139916;28;20258;-69
2023/08/21 14:28:33;;;;;;;7.30;6.80;;;;;;;;;;6155631;28;20188;-68
2023/08/21 14:31:34;;;;;;;7.20;6.67;;;;;;;;;;6175903;28;20207;-68
2023/08/21 14:34:35;;;;;;;7.40;6.80;;;;;;;;;;6167811;28;20181;-69
2023/08/21 14:37:37;;;;;;;7.70;7.10;;;;;;;;;;6165596;28;20234;-68
2023/08/21 14:40:38;;;;;;;7.47;6.77;;;;;;;;;;6166579;28;20208;-68
2023/08/21 14:43:39;;;;;;;6.70;6.10;;;;;;;;;;6158868;28;20198;-68
2023/08/21 14:46:40;;;;;;;7.70;7.13;;;;;;;;;;6154191;28;20199;-68
2023/08/21 14:49:41;;;;;;;7.53;6.93;;;;;;;;;;6166242;28;20239;-68
2023/08/21 14:52:42;;;;;;;7.33;6.73;;;;;;;;;;6159450;28;20215;-68
2023/08/21 14:55:43;;;;;;;7.43;6.90;;;;;;;;;;6160909;28;20188;-68
2023/08/21 14:58:44;;;;;;;7.37;6.77;;;;;;;;;;6164393;28;20184;-69
2023/08/21 15:01:45;;;;;;;6.90;6.30;;;;;;;;;;6155247;28;20200;-68
2023/08/21 15:04:46;;;;;;;7.80;7.20;;;;;;;;;;6172644;28;20242;-68
2023/08/21 15:07:47;;;;;;;7.87;7.17;;;;;;;;;;6160424;28;20251;-68
2023/08/21 15:10:48;;;;;;;7.80;7.20;;;;;;;;;;6159811;28;20278;-68
2023/08/21 15:13:50;;;;;;;7.60;7.00;;;;;;;;;;6169908;28;20188;-68
2023/08/21 15:16:51;;;;;;;7.40;6.90;;;;;;;;;;6168435;28;20199;-68
2023/08/21 15:19:53;;;;;;;7.77;7.17;;;;;;;;;;6176356;28;20192;-68
2023/08/21 15:22:54;;;;;;;8.00;7.30;;;36.60;44.30;;;;;;6174908;28;20220;-68
2023/08/21 15:25:55;;;;;;;8.30;7.60;;;36.50;43.70;;;;;;6159111;28;20198;-68
2023/08/21 15:28:55;;;;;;;7.60;7.00;;;36.40;44.40;;;;;;6155335;28;20203;-68
2023/08/21 15:31:56;;;;;;;8.40;7.70;;;36.50;45.50;;;;;;6152861;28;20224;-68
2023/08/21 15:34:56;;;;;;;7.93;7.33;;;36.20;46.60;;;;;;6158544;28;20211;-68
2023/08/21 15:37:57;;;;;;;9.23;7.60;;;;;;;;;;6160188;28;20279;-68
2023/08/21 15:40:59;;;;;;;8.53;7.90;;;;;;;;;;6158843;28;20285;-68
2023/08/21 15:43:59;;;;;;;8.37;7.67;;;35.60;45.90;;;;;;6171840;28;20235;-68
2023/08/21 15:47:00;;;;;;;8.30;7.50;;;35.60;45.50;;;;;;6163298;28;20192;-68
2023/08/21 15:50:00;;;;;;;7.57;7.03;;;35.50;47.40;;;;;;6163849;28;20220;-68
2023/08/21 15:53:02;;;;;;;8.10;7.40;;;35.40;44.80;;;;;;6149468;28;20192;-68
2023/08/21 15:56:03;;;;;;;8.03;7.43;;;35.30;46.20;;;;;;6152297;28;20192;-68
2023/08/21 15:59:03;;;;;;;7.93;7.37;;;35.20;46.60;;;;;;6154431;28;20192;-68
2023/08/21 16:02:04;;;;;;;8.50;7.80;;;35.20;47.90;;;;;;6158407;28;20189;-68
2023/08/21 16:05:05;;;;;;;8.67;7.97;;;;;;;;;;6174943;28;20203;-68
2023/08/21 16:08:06;;;;;;;8.53;7.70;;;;;;;;;;6155416;28;20247;-68
2023/08/21 16:11:07;;;;;;;7.93;7.40;;;;;;;;;;6165930;28;20217;-68
2023/08/21 16:14:08;;;;;;;8.27;7.67;;;34.40;48.50;;;;;;6161708;28;20195;-68
2023/08/21 16:17:09;;;;;;;8.33;7.67;;;34.20;48.50;;;;;;6172732;28;20185;-68
2023/08/21 16:20:10;;;;;;;8.83;7.73;;;34.00;48.70;;;;;;6151075;28;20219;-68
2023/08/21 16:23:10;;;;;;;8.97;8.07;;;33.90;49.70;;;;;;6158782;28;20284;-68
2023/08/21 16:26:11;;;;;;;8.17;7.57;;;34.00;50.60;;;;;;6158042;28;20200;-68
2023/08/21 16:29:12;;;;;;;8.33;7.40;;;33.60;50.80;;;;;;6158835;28;20203;-68
2023/08/21 16:32:12;;;;;;;8.43;7.60;;;33.30;51.10;;;;;;6172030;28;20221;-68
2023/08/21 16:35:13;;;;;;;7.93;7.23;;;33.20;51.50;;;;;;6165655;28;20196;-68
2023/08/21 16:38:14;;;;;;;8.47;7.73;;;;;;;;;;6157515;28;20287;-68
2023/08/21 16:41:15;;;;;;;9.70;7.40;;;;;;;;;;6173804;28;20196;-68
2023/08/21 16:44:20;;;;;;;8.07;7.37;;;;;;;;;;6152105;28;20199;-68
2023/08/21 16:47:21;;;;;;;9.00;8.30;;;32.80;52.10;;;;;;6181556;28;20185;-68
2023/08/21 16:50:22;;;;;;;8.47;7.87;;;32.50;52.60;;;;;;6169563;28;20267;-68
2023/08/21 16:53:23;;;;;;;8.83;8.13;;;11.70;51.90;;;;;;6156716;28;20244;-68
2023/08/21 16:56:25;;;;;;;9.53;8.63;;;;;;;;;;6158464;28;20287;-68